createdAt,value
2023-05-15T00:00:34.266Z,93.60
2023-05-15T00:03:02.491Z,93.60
2023-05-15T00:05:30.673Z,93.70
2023-05-15T00:07:59.764Z,93.80
2023-05-15T00:10:27.718Z,93.90
2023-05-15T00:12:56.539Z,94.30
2023-05-15T00:15:26.182Z,94.10
2023-05-15T00:17:54.473Z,94.20
2023-05-15T00:20:22.572Z,94.30
2023-05-15T00:22:50.700Z,94.40
2023-05-15T00:25:19.817Z,94.40
2023-05-15T00:27:47.852Z,94.40
2023-05-15T00:30:16.388Z,94.50
2023-05-15T00:32:45.780Z,94.50
2023-05-15T00:35:13.764Z,94.60
2023-05-15T00:37:41.780Z,94.60
2023-05-15T00:40:12.005Z,94.70
2023-05-15T00:42:40.548Z,94.70
2023-05-15T00:45:11.285Z,94.70
2023-05-15T00:47:41.408Z,94.80
2023-05-15T00:50:11.850Z,94.70
2023-05-15T00:52:40.270Z,94.80
2023-05-15T00:55:08.778Z,94.80
2023-05-15T00:57:37.013Z,94.80
2023-05-15T01:00:10.393Z,94.80
2023-05-15T01:02:38.746Z,94.80
2023-05-15T01:05:09.076Z,94.90
2023-05-15T01:07:45.895Z,94.90
2023-05-15T01:10:14.619Z,95.00
2023-05-15T01:12:44.128Z,95.00
2023-05-15T01:15:12.451Z,95.10
2023-05-15T01:17:40.575Z,95.10
2023-05-15T01:20:11.342Z,95.30
2023-05-15T01:23:00.502Z,95.30
2023-05-15T01:25:54.714Z,95.70
2023-05-15T01:28:30.619Z,95.40
2023-05-15T01:31:02.197Z,95.40
2023-05-15T01:33:33.257Z,95.50
2023-05-15T01:36:08.316Z,95.60
2023-05-15T01:38:39.995Z,95.60
2023-05-15T01:41:14.228Z,95.70
2023-05-15T01:43:46.362Z,95.80
2023-05-15T01:46:18.312Z,96.00
2023-05-15T01:48:47.222Z,96.20
2023-05-15T01:51:16.114Z,96.20
2023-05-15T01:53:46.543Z,96.30
2023-05-15T01:56:16.503Z,96.30
2023-05-15T01:58:46.260Z,96.40
2023-05-15T02:01:15.256Z,96.50
2023-05-15T02:03:44.520Z,96.50
2023-05-15T02:06:13.129Z,96.60
2023-05-15T02:08:43.063Z,96.70
2023-05-15T02:11:11.579Z,96.60
2023-05-15T02:13:40.827Z,96.70
2023-05-15T02:16:10.235Z,96.70
2023-05-15T02:18:38.534Z,96.60
2023-05-15T02:21:06.643Z,96.70
2023-05-15T02:23:34.948Z,96.70
2023-05-15T02:26:27.159Z,96.70
2023-05-15T02:29:07.726Z,96.70
2023-05-15T02:31:45.643Z,96.80
2023-05-15T02:34:23.329Z,96.90
2023-05-15T02:36:54.205Z,96.90
2023-05-15T02:39:25.107Z,97.00
2023-05-15T02:41:54.697Z,97.10
2023-05-15T02:44:23.628Z,97.10
2023-05-15T02:46:54.685Z,97.20
2023-05-15T02:49:23.601Z,97.20
2023-05-15T02:51:52.310Z,97.30
2023-05-15T02:54:20.877Z,97.30
2023-05-15T02:56:48.885Z,97.30
2023-05-15T02:59:20.189Z,97.30
2023-05-15T03:01:48.436Z,97.40
2023-05-15T03:04:17.885Z,97.40
2023-05-15T03:06:45.883Z,97.40
2023-05-15T03:09:13.878Z,97.40
2023-05-15T03:11:41.822Z,97.30
2023-05-15T03:14:09.769Z,97.30
2023-05-15T03:16:38.901Z,97.30
2023-05-15T03:19:07.108Z,97.30
2023-05-15T03:21:36.487Z,97.20
2023-05-15T03:24:04.661Z,97.50
2023-05-15T03:26:32.728Z,97.20
2023-05-15T03:29:02.454Z,97.20
2023-05-15T03:31:30.556Z,97.20
2023-05-15T03:33:58.561Z,97.30
2023-05-15T03:36:26.573Z,97.60
2023-05-15T03:38:55.900Z,97.30
2023-05-15T03:41:23.868Z,97.30
2023-05-15T03:43:52.957Z,97.30
2023-05-15T03:46:20.933Z,97.40
2023-05-15T03:48:48.952Z,97.40
2023-05-15T03:51:16.970Z,97.40
2023-05-15T03:53:44.987Z,97.30
2023-05-15T03:56:14.366Z,97.20
2023-05-15T03:58:42.319Z,97.10
2023-05-15T04:01:10.281Z,97.10
2023-05-15T04:03:38.298Z,97.10
2023-05-15T04:06:06.985Z,97.10
2023-05-15T04:08:34.979Z,97.10
2023-05-15T04:11:02.968Z,97.10
2023-05-15T04:13:32.297Z,97.20
2023-05-15T04:16:01.263Z,97.10
2023-05-15T04:18:29.336Z,97.10
2023-05-15T04:20:57.355Z,97.10
2023-05-15T04:23:25.370Z,97.10
2023-05-15T04:25:53.738Z,97.10
2023-05-15T04:28:22.068Z,97.10
2023-05-15T04:30:51.650Z,97.10
2023-05-15T04:33:19.620Z,97.20
2023-05-15T04:35:48.102Z,97.30
2023-05-15T04:38:16.109Z,97.30
2023-05-15T04:40:44.239Z,97.30
2023-05-15T04:43:12.296Z,97.30
2023-05-15T04:45:40.373Z,97.40
2023-05-15T04:48:09.816Z,97.40
2023-05-15T04:50:37.878Z,97.50
2023-05-15T04:53:05.832Z,97.50
2023-05-15T04:55:33.881Z,97.50
2023-05-15T04:58:01.889Z,97.40
2023-05-15T05:00:30.992Z,97.50
2023-05-15T05:02:59.014Z,97.50
2023-05-15T05:05:28.338Z,97.70
2023-05-15T05:07:56.388Z,97.40
2023-05-15T05:10:24.374Z,97.40
2023-05-15T05:12:52.835Z,97.30
2023-05-15T05:15:21.181Z,97.30
2023-05-15T05:17:49.192Z,97.20
2023-05-15T05:20:17.363Z,97.20
2023-05-15T05:22:46.704Z,97.10
2023-05-15T05:25:14.741Z,96.90
2023-05-15T05:27:42.821Z,96.70
2023-05-15T05:30:11.646Z,96.70
2023-05-15T05:32:39.936Z,96.80
2023-05-15T05:35:08.404Z,97.10
2023-05-15T05:37:38.072Z,96.90
2023-05-15T05:40:09.804Z,96.90
2023-05-15T05:42:37.811Z,96.90
2023-05-15T05:45:06.726Z,96.80
2023-05-15T05:47:34.779Z,96.70
2023-05-15T05:50:03.199Z,96.70
2023-05-15T05:52:31.159Z,96.70
2023-05-15T05:54:59.136Z,96.70
2023-05-15T05:57:28.537Z,96.70
2023-05-15T05:59:56.505Z,96.70
2023-05-15T06:02:24.649Z,96.80
2023-05-15T06:04:53.327Z,97.00
2023-05-15T06:07:21.693Z,97.40
2023-05-15T06:09:49.644Z,97.30
2023-05-15T06:12:17.631Z,97.40
2023-05-15T06:14:47.176Z,97.30
2023-05-15T06:17:15.438Z,97.40
2023-05-15T06:19:43.400Z,97.30
2023-05-15T06:22:11.492Z,97.30
2023-05-15T06:24:39.515Z,97.30
2023-05-15T06:27:07.454Z,97.20
2023-05-15T06:29:35.727Z,97.10
2023-05-15T06:32:05.427Z,97.10
2023-05-15T06:34:33.434Z,97.00
2023-05-15T06:37:02.069Z,96.90
2023-05-15T06:39:30.075Z,96.90
2023-05-15T06:42:01.235Z,96.80
2023-05-15T06:44:29.283Z,96.70
2023-05-15T06:46:57.282Z,96.40
2023-05-15T06:49:28.354Z,96.40
2023-05-15T06:51:56.694Z,96.60
2023-05-15T06:54:24.665Z,96.20
2023-05-15T06:56:52.685Z,96.30
2023-05-15T06:59:20.800Z,96.30
2023-05-15T07:01:48.924Z,96.20
2023-05-15T07:04:17.010Z,96.20
2023-05-15T07:06:46.361Z,96.20
2023-05-15T07:09:14.448Z,96.20
2023-05-15T07:11:42.415Z,96.00
2023-05-15T07:14:10.359Z,95.70
2023-05-15T07:16:38.346Z,95.60
2023-05-15T07:19:06.373Z,95.50
2023-05-15T07:21:34.396Z,95.50
2023-05-15T07:24:03.706Z,95.30
2023-05-15T07:26:36.577Z,95.20
2023-05-15T07:29:09.882Z,95.10
2023-05-15T07:31:40.416Z,95.10
2023-05-15T07:34:08.543Z,95.40
2023-05-15T07:36:36.590Z,95.00
2023-05-15T07:39:06.041Z,94.50
2023-05-15T07:41:34.319Z,94.00
2023-05-15T07:44:02.277Z,94.20
2023-05-15T07:46:30.303Z,94.30
2023-05-15T07:48:58.582Z,94.40
2023-05-15T07:51:26.627Z,94.30
2023-05-15T07:53:54.623Z,94.30
2023-05-15T07:56:24.297Z,94.20
2023-05-15T07:58:52.308Z,94.10
2023-05-15T08:01:20.340Z,94.00
2023-05-15T08:03:48.326Z,93.80
2023-05-15T08:06:16.363Z,94.00
2023-05-15T08:08:44.314Z,94.00
2023-05-15T08:11:12.412Z,93.90
2023-05-15T08:13:41.773Z,93.80
2023-05-15T08:16:09.777Z,93.80
2023-05-15T08:18:37.783Z,93.70
2023-05-15T08:21:05.879Z,93.70
2023-05-15T08:23:33.874Z,93.60
2023-05-15T08:26:01.798Z,93.40
2023-05-15T08:28:29.813Z,93.40
2023-05-15T08:30:59.182Z,93.50
2023-05-15T08:33:27.267Z,93.60
2023-05-15T08:35:55.470Z,93.50
2023-05-15T08:38:23.853Z,93.50
2023-05-15T08:40:53.936Z,93.60
2023-05-15T08:43:23.803Z,93.70
2023-05-15T08:45:52.112Z,93.80
2023-05-15T08:48:22.226Z,93.90
2023-05-15T08:50:51.117Z,94.00
2023-05-15T08:53:19.667Z,94.10
2023-05-15T08:55:47.724Z,93.90
2023-05-15T08:58:16.883Z,93.90
2023-05-15T09:00:45.157Z,93.70
2023-05-15T09:03:16.510Z,93.60
2023-05-15T09:05:47.453Z,93.60
2023-05-15T09:08:17.862Z,93.60
2023-05-15T09:10:46.237Z,93.70
2023-05-15T09:13:15.749Z,93.80
2023-05-15T09:15:43.914Z,93.80
2023-05-15T09:18:12.558Z,94.00
2023-05-15T09:20:40.623Z,93.60
2023-05-15T09:23:24.781Z,93.60
2023-05-15T09:25:55.630Z,93.70
2023-05-15T09:28:29.064Z,93.70
2023-05-15T09:31:01.894Z,93.70
2023-05-15T09:33:33.853Z,93.90
2023-05-15T09:36:02.104Z,93.90
2023-05-15T09:38:33.709Z,93.90
2023-05-15T09:41:06.082Z,93.50
2023-05-15T09:43:38.926Z,93.40
2023-05-15T09:46:08.321Z,93.40
2023-05-15T09:48:36.975Z,93.30
2023-05-15T09:51:07.665Z,93.30
2023-05-15T09:53:38.695Z,93.10
2023-05-15T09:56:06.946Z,93.10
2023-05-15T09:58:36.781Z,92.30
2023-05-15T10:01:11.701Z,92.30
2023-05-15T10:03:43.647Z,92.40
2023-05-15T10:06:19.748Z,92.50
2023-05-15T10:08:54.253Z,92.60
2023-05-15T10:11:22.702Z,92.70
2023-05-15T10:13:50.822Z,92.60
2023-05-15T10:16:21.282Z,92.60
2023-05-15T10:18:52.369Z,92.60
2023-05-15T10:21:21.697Z,93.20
2023-05-15T10:23:55.090Z,93.40
2023-05-15T10:26:25.658Z,93.30
2023-05-15T10:28:55.219Z,93.40
2023-05-15T10:31:24.620Z,93.50
2023-05-15T10:33:53.547Z,93.70
2023-05-15T10:36:22.144Z,94.10
2023-05-15T10:38:51.445Z,94.50
2023-05-15T10:41:22.161Z,94.70
2023-05-15T10:43:51.045Z,94.90
2023-05-15T10:46:19.244Z,95.10
2023-05-15T10:48:47.391Z,95.20
2023-05-15T10:51:17.365Z,95.30
2023-05-15T10:53:45.732Z,95.40
2023-05-15T10:56:16.478Z,95.60
2023-05-15T10:58:50.700Z,96.10
2023-05-15T11:01:32.874Z,95.70
2023-05-15T11:04:12.532Z,95.40
2023-05-15T11:06:42.016Z,95.20
2023-05-15T11:09:34.840Z,95.00
2023-05-15T11:12:04.235Z,94.70
2023-05-15T11:14:34.956Z,94.50
2023-05-15T11:17:05.184Z,94.30
2023-05-15T11:19:35.857Z,94.30
2023-05-15T11:22:17.346Z,93.90
2023-05-15T11:24:55.809Z,93.40
2023-05-15T11:27:26.120Z,93.10
2023-05-15T11:30:20.883Z,93.20
2023-05-15T11:32:55.517Z,93.00
2023-05-15T11:35:27.654Z,92.40
2023-05-15T11:37:57.146Z,91.90
2023-05-15T11:40:27.265Z,91.80
2023-05-15T11:43:20.353Z,91.40
2023-05-15T11:45:52.765Z,91.50
2023-05-15T11:48:21.557Z,91.40
2023-05-15T11:50:50.022Z,91.50
2023-05-15T11:53:19.964Z,91.80
2023-05-15T11:55:48.306Z,92.00
2023-05-15T11:58:17.844Z,92.50
2023-05-15T12:00:47.666Z,92.10
2023-05-15T12:03:19.219Z,91.90
2023-05-15T12:05:58.154Z,91.70
2023-05-15T12:08:32.001Z,91.20
2023-05-15T12:11:00.572Z,91.20
2023-05-15T12:13:28.889Z,91.40
2023-05-15T12:15:57.604Z,91.60
2023-05-15T12:18:26.946Z,91.20
2023-05-15T12:20:56.186Z,91.40
2023-05-15T12:23:25.656Z,91.10
2023-05-15T12:25:58.431Z,91.00
2023-05-15T12:28:27.190Z,91.00
2023-05-15T12:30:55.647Z,90.70
2023-05-15T12:33:23.924Z,90.40
2023-05-15T12:35:59.132Z,90.00
2023-05-15T12:38:28.322Z,90.10
2023-05-15T12:40:57.150Z,90.10
2023-05-15T12:43:26.273Z,90.10
2023-05-15T12:45:54.891Z,89.70
2023-05-15T12:48:23.183Z,89.00
2023-05-15T12:50:51.536Z,89.10
2023-05-15T12:53:22.901Z,87.90
2023-05-15T12:55:52.431Z,88.00
2023-05-15T12:58:21.099Z,87.80
2023-05-15T13:00:50.771Z,87.50
2023-05-15T13:03:21.683Z,85.80
2023-05-15T13:05:49.833Z,85.30
2023-05-15T13:08:20.010Z,85.90
2023-05-15T13:10:48.669Z,85.20
2023-05-15T13:13:17.980Z,83.50
2023-05-15T13:15:46.537Z,83.20
2023-05-15T13:18:16.093Z,82.80
2023-05-15T13:20:45.321Z,81.60
2023-05-15T13:23:15.062Z,83.60
2023-05-15T13:25:44.982Z,82.80
2023-05-15T13:28:14.397Z,82.70
2023-05-15T13:30:43.131Z,83.80
2023-05-15T13:33:12.405Z,84.80
2023-05-15T13:35:41.493Z,86.30
2023-05-15T13:38:11.759Z,87.30
2023-05-15T13:40:40.230Z,88.90
2023-05-15T13:43:09.721Z,89.50
2023-05-15T13:45:37.774Z,90.40
2023-05-15T13:48:06.331Z,90.90
2023-05-15T13:50:34.349Z,91.40
2023-05-15T13:53:02.307Z,91.70
2023-05-15T13:55:31.421Z,92.20
2023-05-15T13:57:59.630Z,92.50
2023-05-15T14:00:29.106Z,92.80
2023-05-15T14:02:57.074Z,93.30
2023-05-15T14:05:25.073Z,93.60
2023-05-15T14:07:53.449Z,94.30
2023-05-15T14:10:21.582Z,95.00
2023-05-15T14:12:51.870Z,95.60
2023-05-15T14:15:20.333Z,95.80
2023-05-15T14:17:50.506Z,96.40
2023-05-15T14:20:18.829Z,96.60
2023-05-15T14:22:46.799Z,97.40
2023-05-15T14:25:14.763Z,97.20
2023-05-15T14:27:42.778Z,97.30
2023-05-15T14:30:11.757Z,97.40
2023-05-15T14:32:39.784Z,97.70
2023-05-15T14:35:09.456Z,97.70
2023-05-15T14:37:37.819Z,97.70
2023-05-15T14:40:08.110Z,97.80
2023-05-15T14:42:36.094Z,97.90
2023-05-15T14:45:04.927Z,97.40
2023-05-15T14:47:33.685Z,97.40
2023-05-15T14:50:01.736Z,97.30
2023-05-15T14:52:31.071Z,97.30
2023-05-15T14:55:09.356Z,97.10
2023-05-15T14:57:38.021Z,97.30
2023-05-15T15:00:08.263Z,97.40
2023-05-15T15:02:36.678Z,97.50
2023-05-15T15:05:05.716Z,97.50
2023-05-15T15:07:59.201Z,97.40
2023-05-15T15:10:29.256Z,97.20
2023-05-15T15:12:57.917Z,97.30
2023-05-15T15:15:26.624Z,97.50
2023-05-15T15:17:54.862Z,97.80
2023-05-15T15:20:23.257Z,97.80
2023-05-15T15:22:53.115Z,98.20
2023-05-15T15:25:22.998Z,98.70
2023-05-15T15:27:51.236Z,98.70
2023-05-15T15:30:19.411Z,99.00
2023-05-15T15:32:47.455Z,99.30
2023-05-15T15:35:15.431Z,99.30
2023-05-15T15:37:43.436Z,98.30
2023-05-15T15:40:12.976Z,97.60
2023-05-15T15:42:40.934Z,96.50
2023-05-15T15:45:09.545Z,96.20
2023-05-15T15:47:37.578Z,96.20
2023-05-15T15:50:06.319Z,96.10
2023-05-15T15:52:34.335Z,96.20
2023-05-15T15:55:02.373Z,96.30
2023-05-15T15:57:31.768Z,96.10
2023-05-15T15:59:59.814Z,95.90
2023-05-15T16:02:28.306Z,95.70
2023-05-15T16:04:56.410Z,95.50
2023-05-15T16:07:24.422Z,95.50
2023-05-15T16:10:00.511Z,95.50
2023-05-15T16:12:40.646Z,95.50
2023-05-15T16:15:21.597Z,95.70
2023-05-15T16:17:53.539Z,95.70
2023-05-15T16:20:22.517Z,95.70
2023-05-15T16:22:50.523Z,95.50
2023-05-15T16:25:18.637Z,95.60
2023-05-15T16:27:47.981Z,95.60
2023-05-15T16:30:16.137Z,95.60
2023-05-15T16:32:44.185Z,95.60
2023-05-15T16:35:12.175Z,95.50
2023-05-15T16:37:40.165Z,95.90
2023-05-15T16:40:09.818Z,95.50
2023-05-15T16:42:38.824Z,95.40
2023-05-15T16:45:09.950Z,95.10
2023-05-15T16:47:39.395Z,94.80
2023-05-15T16:50:08.596Z,94.50
2023-05-15T16:52:38.533Z,94.40
2023-05-15T16:55:07.472Z,94.30
2023-05-15T16:57:35.581Z,94.10
2023-05-15T17:00:04.203Z,94.20
2023-05-15T17:02:33.564Z,94.20
2023-05-15T17:05:01.650Z,94.30
2023-05-15T17:07:29.586Z,94.20
2023-05-15T17:09:57.694Z,94.10
2023-05-15T17:12:25.680Z,94.00
2023-05-15T17:14:53.677Z,93.90
2023-05-15T17:17:23.150Z,93.80
2023-05-15T17:19:52.677Z,93.80
2023-05-15T17:22:20.884Z,93.90
2023-05-15T17:24:51.954Z,93.90
2023-05-15T17:27:21.941Z,94.00
2023-05-15T17:29:50.083Z,94.00
2023-05-15T17:32:18.802Z,93.90
2023-05-15T17:34:46.945Z,93.90
2023-05-15T17:37:16.290Z,93.90
2023-05-15T17:39:44.547Z,93.90
2023-05-15T17:42:12.502Z,93.90
2023-05-15T17:44:40.485Z,93.90
2023-05-15T17:47:10.189Z,93.90
2023-05-15T17:49:38.822Z,93.90
2023-05-15T17:52:07.043Z,93.90
2023-05-15T17:54:36.362Z,94.00
2023-05-15T17:57:04.516Z,94.10
2023-05-15T17:59:32.498Z,94.00
2023-05-15T18:02:00.668Z,94.00
2023-05-15T18:04:28.648Z,94.00
2023-05-15T18:06:56.645Z,94.00
2023-05-15T18:09:24.918Z,94.00
2023-05-15T18:11:54.309Z,94.10
2023-05-15T18:14:22.314Z,94.20
2023-05-15T18:16:50.290Z,94.20
2023-05-15T18:19:18.418Z,94.20
2023-05-15T18:21:46.561Z,94.20
2023-05-15T18:24:14.535Z,94.30
2023-05-15T18:26:42.569Z,94.30
2023-05-15T18:29:11.983Z,94.40
2023-05-15T18:31:40.056Z,94.50
2023-05-15T18:34:08.228Z,94.50
2023-05-15T18:36:36.266Z,94.50
2023-05-15T18:39:04.370Z,94.60
2023-05-15T18:41:32.319Z,94.70
2023-05-15T18:44:00.348Z,94.70
2023-05-15T18:46:31.701Z,94.70
2023-05-15T18:48:59.821Z,94.70
2023-05-15T18:51:27.925Z,94.80
2023-05-15T18:53:56.071Z,94.80
2023-05-15T18:56:25.017Z,94.80
2023-05-15T18:58:53.203Z,94.90
2023-05-15T19:01:21.906Z,95.20
2023-05-15T19:03:51.449Z,94.90
2023-05-15T19:06:20.147Z,95.00
2023-05-15T19:08:48.729Z,95.00
2023-05-15T19:11:17.313Z,95.30
2023-05-15T19:13:45.338Z,95.00
2023-05-15T19:16:13.435Z,95.10
2023-05-15T19:18:41.627Z,95.10
2023-05-15T19:21:11.345Z,95.10
2023-05-15T19:23:39.302Z,95.10
2023-05-15T19:26:07.468Z,95.10
2023-05-15T19:28:35.775Z,95.20
2023-05-15T19:31:04.366Z,95.30
2023-05-15T19:33:32.717Z,95.40
2023-05-15T19:36:00.685Z,95.60
2023-05-15T19:38:30.016Z,95.70
2023-05-15T19:40:57.995Z,95.70
2023-05-15T19:43:27.423Z,95.90
2023-05-15T19:45:55.743Z,96.00
2023-05-15T19:48:24.033Z,96.10
2023-05-15T19:50:52.138Z,96.50
2023-05-15T19:53:20.144Z,96.20
2023-05-15T19:55:49.546Z,96.30
2023-05-15T19:58:17.517Z,96.40
2023-05-15T20:00:46.197Z,96.50
2023-05-15T20:03:14.221Z,96.70
2023-05-15T20:05:42.521Z,96.70
2023-05-15T20:08:10.984Z,96.90
2023-05-15T20:10:38.913Z,97.10
2023-05-15T20:13:08.349Z,97.10
2023-05-15T20:15:39.996Z,97.20
2023-05-15T20:18:08.292Z,97.40
2023-05-15T20:20:36.825Z,97.50
2023-05-15T20:23:04.850Z,97.60
2023-05-15T20:25:32.809Z,97.60
2023-05-15T20:28:01.217Z,97.80
2023-05-15T20:30:32.411Z,97.90
2023-05-15T20:33:00.503Z,98.30
2023-05-15T20:35:29.709Z,98.10
2023-05-15T20:37:57.741Z,98.00
2023-05-15T20:40:26.755Z,98.10
2023-05-15T20:42:54.892Z,98.10
2023-05-15T20:45:23.093Z,98.10
2023-05-15T20:47:52.686Z,98.10
2023-05-15T20:50:20.741Z,98.10
2023-05-15T20:52:48.943Z,98.20
2023-05-15T20:55:19.587Z,98.60
2023-05-15T20:57:48.992Z,98.20
2023-05-15T21:00:18.223Z,98.30
2023-05-15T21:02:47.676Z,98.30
2023-05-15T21:05:17.048Z,98.30
2023-05-15T21:07:45.324Z,98.20
2023-05-15T21:10:13.313Z,98.20
2023-05-15T21:12:42.154Z,98.20
2023-05-15T21:15:11.187Z,98.30
2023-05-15T21:17:39.825Z,98.30
2023-05-15T21:20:09.268Z,98.30
2023-05-15T21:22:38.631Z,98.30
2023-05-15T21:25:07.582Z,98.40
2023-05-15T21:27:35.526Z,98.40
2023-05-15T21:30:03.807Z,98.50
2023-05-15T21:32:31.826Z,98.50
2023-05-15T21:34:59.789Z,98.60
2023-05-15T21:37:28.101Z,98.60
2023-05-15T21:39:57.419Z,98.60
2023-05-15T21:42:26.445Z,98.60
2023-05-15T21:44:54.538Z,98.60
2023-05-15T21:47:22.543Z,98.70
2023-05-15T21:49:50.699Z,98.80
2023-05-15T21:52:18.659Z,98.80
2023-05-15T21:54:46.704Z,98.90
2023-05-15T21:57:16.080Z,99.00
2023-05-15T21:59:44.021Z,99.00
2023-05-15T22:02:12.085Z,99.10
2023-05-15T22:04:40.157Z,99.10
2023-05-15T22:07:08.263Z,99.20
2023-05-15T22:09:36.235Z,99.20
2023-05-15T22:12:04.631Z,99.30
2023-05-15T22:14:35.014Z,99.30
2023-05-15T22:17:03.107Z,99.30
2023-05-15T22:19:33.421Z,99.40
2023-05-15T22:22:01.917Z,99.50
2023-05-15T22:24:29.939Z,99.80
2023-05-15T22:26:57.905Z,99.60
2023-05-15T22:29:26.616Z,99.60
2023-05-15T22:31:56.966Z,99.60
2023-05-15T22:34:25.347Z,99.70
2023-05-15T22:39:22.363Z,99.70
2023-05-15T22:41:50.600Z,99.70
2023-05-15T22:44:18.554Z,99.90
2023-05-15T22:46:46.538Z,99.70
2023-05-15T22:49:19.195Z,99.70
2023-05-15T22:51:47.399Z,99.80
2023-05-15T22:54:15.377Z,99.80
2023-05-15T22:56:43.415Z,99.80
2023-05-15T22:59:11.491Z,99.80
2023-05-15T23:01:40.021Z,99.90
2023-05-15T23:04:08.378Z,99.90
2023-05-15T23:06:37.968Z,99.90
2023-05-15T23:09:06.095Z,99.90
2023-05-15T23:11:34.068Z,99.90
2023-05-15T23:14:02.914Z,99.90
2023-05-15T23:16:30.991Z,99.90
2023-05-15T23:18:59.130Z,99.90
2023-05-15T23:21:27.211Z,99.90
2023-05-15T23:23:56.678Z,99.90
2023-05-15T23:26:24.646Z,99.90
2023-05-15T23:28:52.613Z,99.90
2023-05-15T23:31:20.801Z,99.90
2023-05-15T23:33:48.881Z,99.90
2023-05-15T23:36:16.885Z,99.90
2023-05-15T23:38:45.537Z,99.90
2023-05-15T23:41:14.903Z,99.90
2023-05-15T23:43:42.888Z,99.90
2023-05-15T23:46:10.935Z,99.90
2023-05-15T23:48:40.343Z,99.90
2023-05-15T23:51:08.483Z,99.90
2023-05-15T23:53:36.675Z,99.90
2023-05-15T23:56:04.826Z,99.90
2023-05-15T23:58:34.120Z,99.90
